Weather observations for the past three days for
Jackson, Jackson Municipal Airport
Metric (Imperial)
Date Time (cdt) Wind (kph) Vis. (km) Weather Sky Cond. Temperature (ºC) Relative Humidity Wind Chill (°C) Heat Index (°C) Pressure Precipitation (cm)
Air Dwpt 6 hour altimeter (cm) sea level (mb) 1 hr 3 hr 6 hr
Max. Min.
04 01:15 SW 17 16.09 Fair CLR 13 0 41% 75.23 0.0
04 00:55 SW 17 16.09 Fair CLR 12 0 44% 75.26 0.0
04 00:35 SW 13 16.09 Fair CLR 11 1 50% 75.29 0.0
04 00:15 SW 15 16.09 Fair CLR 12 1 47% 75.34 0.0
03 23:56 SW 9 16.09 Fair CLR 11 1 50% 75.34 0.0
03 23:36 S 11 16.09 Fair CLR 12 1 47% 75.36 0.0
03 23:15 S 11 16.09 Fair CLR 12 0 44% 75.36 0.0
03 22:55 SW 13 16.09 Fair CLR 13 0 41% 75.39 0.0
03 22:35 SW 11 16.09 Fair CLR 13 0 41% 75.44 0.0
03 22:15 SW 7 16.09 Fair CLR 14 -1 36% 75.46 0.0
03 21:55 SW 7 16.09 Fair CLR 15 -2 31% 75.49 0.0
03 21:35 SW 11 16.09 Fair CLR 15 -2 31% 75.49 0.0
03 21:16 W 7 16.09 Fair CLR 15 -2 31% 75.49 0.0
03 20:55 W 11 16.09 Fair CLR 15 -2 31% 75.49 0.0
03 20:35 W 11 16.09 Fair CLR 16 -2 29% 75.49 0.0
03 20:15 W 11 16.09 Fair CLR 17 -2 27% 75.49 0.0
03 19:55 W 11 16.09 Fair CLR 19 -3 22% 75.49 0.0
03 19:35 W 15 16.09 Fair CLR 20 -4 20% 75.49 0.0
03 19:15 W 13 16.09 Fair CLR 21 -4 18% 75.49 0.0
03 18:56 W 24 G 33 16.09 Fair CLR 21 -4 18% 75.49 0.0
03 18:35 NW 19 G 35 16.09 Fair CLR 21 -4 18% 75.51 0.0
03 18:15 W 20 G 30 16.09 Fair CLR 22 -2 20% 75.51 0.0
03 17:55 W 22 G 33 16.09 Fair CLR 22 -3 19% 75.51 0.0
03 17:35 NW 13 G 28 16.09 Fair CLR 22 -1 22% 75.54 0.0
03 17:15 NW 24 G 39 16.09 Fair CLR 22 -1 22% 75.54 0.0
03 16:55 W 19 G 33 16.09 Fair CLR 22 -2 20% 75.57 0.0
03 16:36 NW 24 G 37 16.09 Fair CLR 21 -3 20% 75.57 0.0
03 16:15 NW 26 G 39 16.09 Fair CLR 21 -1 23% 75.59 0.0
03 15:55 NW 31 G 41 16.09 Fair CLR 21 -1 23% 75.62 0.0
03 15:35 NW 24 G 35 16.09 Fair CLR 21 -2 21% 75.64 0.0
03 14:55 NW 24 G 46 16.09 Fair CLR 20 0 26% 75.67 0.0
03 14:35 NW 30 G 41 16.09 Fair CLR 20 0 26% 75.67 0.0
03 14:16 N 28 G 41 16.09 Fair CLR 20 0 26% 75.67 0.0
03 13:55 NW 28 G 41 16.09 Fair CLR 19 -1 26% 75.69 0.0
03 13:35 N 28 G 43 16.09 Fair CLR 19 -1 26% 75.72 0.0
03 13:15 N 30 G 43 16.09 Fair CLR 19 0 28% 75.72 0.0
03 12:55 N 30 G 46 16.09 Fair CLR 19 0 28% 75.74 0.0
03 12:35 NW 41 G 48 16.09 Fair and Breezy CLR 19 0 28% 75.74 0.0
03 12:15 N 28 G 48 16.09 Fair CLR 19 0 28% 75.74 0.0
03 11:56 NW 37 G 50 16.09 Fair and Breezy CLR 18 1 32% 75.74 0.0
03 11:35 NW 37 G 50 16.09 Fair and Breezy CLR 18 1 32% 75.74 0.0
03 11:15 NW 31 G 44 16.09 Fair CLR 18 2 34% 75.74 0.0
03 10:55 N 33 G 52 16.09 Fair and Breezy CLR 17 2 37% 75.74 0.0
03 10:35 NW 43 G 50 16.09 Fair and Windy CLR 17 2 37% 75.74 0.0
03 10:15 N 28 G 46 16.09 Fair CLR 17 2 37% 75.74 0.0
03 09:55 NW 35 G 44 16.09 Fair and Breezy CLR 16 2 39% 75.72 0.0
03 09:35 NW 31 G 41 16.09 Fair CLR 15 2 42% 75.72 0.0
03 09:16 NW 37 G 46 16.09 Fair and Breezy CLR 15 2 42% 75.72 0.0
03 08:55 NW 31 G 48 16.09 Fair CLR 14 2 44% 75.69 0.0
03 08:35 NW 35 G 46 16.09 Fair and Breezy CLR 13 2 47% 75.67 0.0
03 08:15 NW 37 G 44 16.09 Fair and Breezy CLR 13 1 44% 75.67 0.0
03 07:55 NW 35 G 43 16.09 Fair and Breezy CLR 12 1 47% 75.64 0.0
03 07:35 NW 30 G 41 16.09 Fair CLR 11 1 50% 75.62 0.0
03 07:15 NW 28 16.09 Fair CLR 10 1 54% 7 75.59 0.0
03 06:56 NW 22 G 33 16.09 Fair CLR 10 1 54% 7 75.57 0.0
03 06:35 NW 26 G 31 16.09 Fair CLR 10 1 54% 7 75.54 0.0
03 06:15 W 19 G 26 16.09 Fair CLR 10 1 54% 8 75.54 0.0
03 05:55 W 17 16.09 Fair CLR 9 1 58% 7 75.51 0.0
03 05:35 W 17 16.09 Fair CLR 9 0 54% 7 75.51 0.0
03 05:15 W 17 16.09 Fair CLR 10 0 50% 8 75.54 0.0
03 04:55 W 15 16.09 Fair CLR 10 -1 47% 8 75.54 0.0
03 04:36 W 15 16.09 Fair CLR 10 -1 47% 8 75.54 0.0
03 04:15 SW 13 16.09 Fair CLR 11 -1 44% 75.54 0.0
03 03:55 W 15 16.09 Fair CLR 12 -2 38% 75.54 0.0
03 03:35 SW 15 16.09 Partly Cloudy SCT120 13 -2 36% 75.57 0.0
03 03:15 SW 11 16.09 Partly Cloudy SCT120 13 -1 38% 75.57 0.0
03 02:55 W 13 16.09 Fair CLR 13 0 41% 75.59 0.0
03 02:35 W 17 G 30 16.09 Fair CLR 13 -1 38% 75.62 0.0
03 02:16 SW 19 16.09 Partly Cloudy SCT095 13 0 41% 75.57 0.0
03 01:55 SW 20 16.09 Partly Cloudy SCT095 SCT120 13 -1 38% 75.57 0.0
03 01:35 S 20 16.09 Overcast SCT075 SCT100 OVC120 13 -1 38% 75.59 0.0
03 01:15 S 26 G 37 16.09 Overcast SCT070 OVC100 13 -1 38% 75.62 0.0
03 00:55 S 20 G 35 16.09 Overcast OVC100 13 -1 38% 75.64 0.0
03 00:35 S 22 16.09 Overcast OVC100 13 -2 36% 75.64 0.0
03 00:15 S 24 16.09 Overcast OVC110 14 -2 33% 75.67 0.0
02 23:56 S 22 G 31 16.09 Overcast OVC110 14 -2 33% 75.67 0.0
02 23:35 S 22 16.09 Overcast OVC110 14 -2 33% 75.69 0.0
02 23:15 S 19 16.09 Overcast OVC100 14 -2 33% 75.72 0.0
02 22:55 S 19 G 31 16.09 Overcast SCT060 SCT070 OVC100 15 -2 31% 75.74 0.0
02 22:35 S 15 16.09 Overcast OVC100 14 -1 36% 75.79 0.0
02 22:15 S 15 16.09 Mostly Cloudy BKN110 14 -2 33% 75.82 0.0
02 21:55 S 19 16.09 Partly Cloudy SCT120 14 -2 33% 75.82 0.0
02 21:36 S 17 16.09 Fair CLR 15 -2 31% 75.84 0.0
02 21:15 S 13 16.09 Partly Cloudy SCT100 14 -1 36% 75.84 0.0
02 20:55 S 13 16.09 Partly Cloudy SCT110 15 -1 34% 75.87 0.0
02 20:35 S 11 16.09 Mostly Cloudy BKN110 16 -2 29% 75.87 0.0
02 20:15 SW 13 16.09 Overcast OVC110 16 -3 27% 75.9 0.0
02 19:55 SW 15 G 26 16.09 Overcast OVC110 17 -3 25% 75.9 0.0
02 19:35 SW 20 16.09 Mostly Cloudy BKN110 17 -3 25% 75.92 0.0
02 19:16 SW 20 G 28 16.09 Partly Cloudy SCT110 18 -3 24% 75.92 0.0
02 18:55 SW 17 G 28 16.09 Partly Cloudy SCT120 17 -3 25% 75.95 0.0
02 18:35 SW 30 16.09 Mostly Cloudy BKN110 18 -3 24% 75.95 0.0
02 18:15 SW 24 G 35 16.09 Mostly Cloudy BKN110 18 -3 24% 75.95 0.0
02 17:55 SW 24 G 31 16.09 Mostly Cloudy SCT095 BKN120 18 -3 24% 75.97 0.0
02 17:35 SW 19 16.09 Partly Cloudy SCT095 SCT120 18 -2 26% 76 0.0
02 17:16 SW 19 G 35 16.09 Partly Cloudy SCT085 18 -3 24% 76.02 0.0
02 16:55 W 15 G 31 16.09 Fair CLR 18 -3 24% 76.02 0.0
02 16:35 SW 15 G 28 16.09 Fair CLR 18 -3 24% 76.05 0.0
02 16:15 SW 24 G 30 16.09 Fair CLR 18 -2 26% 76.07 0.0
02 15:55 W 17 16.09 Partly Cloudy SCT080 18 -2 26% 76.1 0.0
02 15:35 SW 22 G 33 16.09 Partly Cloudy SCT080 18 -2 26% 76.12 0.0
02 15:15 W 19 G 31 16.09 Fair CLR 18 -3 24% 76.17 0.0
02 14:56 W 11 G 28 16.09 Fair CLR 18 -3 24% 76.17 0.0
02 14:35 W 19 G 35 16.09 Fair CLR 17 -2 27% 76.2 0.0
02 14:15 W 11 G 28 16.09 Fair CLR 17 -3 25% 76.23 0.0
02 13:55 W 19 G 30 16.09 Fair CLR 17 -2 27% 76.25 0.0
02 13:35 W 15 16.09 Fair CLR 16 -3 27% 76.28 0.0
02 13:15 W 22 G 28 16.09 Fair CLR 15 -3 29% 76.3 0.0
02 12:55 W 17 G 26 16.09 Fair CLR 15 -3 29% 76.33 0.0
02 12:36 SW 13 16.09 Fair CLR 15 -4 27% 76.35 0.0
02 12:15 W 22 G 31 16.09 Fair CLR 14 -3 31% 76.38 0.0
02 11:55 W 17 G 28 16.09 Fair CLR 14 -4 29% 76.4 0.0
02 11:35 W 11 G 31 16.09 Fair CLR 13 -4 31% 76.4 0.0
02 11:15 W 13 16.09 Fair CLR 13 -5 28% 76.4 0.0
02 10:55 SW 20 16.09 Fair CLR 13 -4 31% 76.43 0.0
02 10:35 W 17 G 26 16.09 Fair CLR 12 -4 33% 76.45 0.0
02 10:16 W 17 G 26 16.09 Fair CLR 12 -3 35% 76.45 0.0
02 09:55 SW 19 16.09 Fair CLR 11 -3 38% 76.45 0.0
02 09:35 W 20 G 26 16.09 Fair CLR 11 -2 41% 76.48 0.0
02 09:15 SW 17 16.09 Fair CLR 9 -2 46% 7 76.48 0.0
02 08:55 SW 15 16.09 Fair CLR 8 -2 50% 6 76.48 0.0
02 08:35 W 15 16.09 Fair CLR 8 -1 53% 6 76.48 0.0
02 08:15 W 15 16.09 Fair CLR 7 -2 53% 5 76.5 0.0
02 07:55 SW 11 16.09 Fair CLR 6 -2 57% 4 76.5 0.0
02 07:36 SW 11 16.09 Fair CLR 5 -1 66% 3 76.5 0.0
02 07:15 SW 9 16.09 Fair CLR 3 -2 70% 1 76.5 0.0
02 06:55 W 7 16.09 Fair CLR 1 -3 75% -1 76.5 0.0
02 06:35 W 7 16.09 Fair CLR 1 -4 70% -1 76.48 0.0
02 06:15 W 7 16.09 Fair CLR 1 -4 70% -1 76.5 0.0
02 05:55 W 6 16.09 Fair CLR 1 -4 70% 76.48 0.0
02 05:35 W 6 16.09 Fair CLR 1 -3 75% 76.5 0.0
02 05:16 W 6 16.09 Fair CLR 1 -3 75% 76.5 0.0
02 04:55 W 6 16.09 Fair CLR 1 -4 70% 76.5 0.0
02 04:35 W 6 16.09 Fair CLR 1 -4 70% 76.48 0.0
02 04:15 W 6 16.09 Fair CLR 1 -4 70% 76.48 0.0
02 03:55 Calm 16.09 Fair CLR 1 -3 75% 76.48 0.0
02 03:35 W 6 16.09 Fair CLR 2 -3 70% 76.48 0.0
02 03:15 Calm 16.09 Fair CLR 2 -3 70% 76.48 0.0
02 02:56 Calm 16.09 Fair CLR 1 -3 75% 76.48 0.0
02 02:35 W 6 16.09 Fair CLR 1 -3 75% 76.48 0.0
02 02:15 W 6 16.09 Fair CLR 2 -3 70% 76.5 0.0
02 01:55 W 7 16.09 Fair CLR 1 -3 75% -1 76.5 0.0
02 01:35 W 6 16.09 Fair CLR 2 -3 70% 76.53 0.0
02 01:15 Calm 16.09 Fair CLR 2 -3 70% 76.5 0.0
02 00:55 Calm 16.09 Fair CLR 3 -3 65% 76.53 0.0
02 00:36 W 7 16.09 Fair CLR 2 -3 70% 0 76.5 0.0
02 00:15 Calm 16.09 Fair CLR 2 -3 70% 76.5 0.0
01 23:55 Calm 16.09 Fair CLR 2 -3 70% 76.5 0.0
01 23:35 Calm 16.09 Fair CLR 2 -3 70% 76.5 0.0
01 23:15 Calm 16.09 Fair CLR 4 -3 61% 76.5 0.0
01 22:55 Calm 16.09 Fair CLR 5 -4 53% 76.5 0.0
01 22:35 Calm 16.09 Fair CLR 4 -2 65% 76.5 0.0
01 22:16 Calm 16.09 Fair CLR 4 -2 65% 76.5 0.0
01 21:55 Calm 16.09 Fair CLR 5 -2 61% 76.5 0.0
01 21:35 Calm 16.09 Fair CLR 5 -2 61% 76.5 0.0
01 21:15 N 6 16.09 Fair CLR 6 -3 53% 76.48 0.0
01 20:55 Calm 16.09 Fair CLR 6 -3 53% 76.48 0.0
01 20:35 N 6 16.09 Fair CLR 6 -3 53% 76.45 0.0
01 20:15 N 6 16.09 Partly Cloudy SCT065 8 -3 46% 76.45 0.0
01 19:56 N 13 16.09 Overcast OVC065 9 -5 37% 7 76.43 0.0
01 19:35 N 11 16.09 Overcast OVC065 10 -4 37% 9 76.43 0.0
01 19:15 N 6 16.09 Mostly Cloudy BKN065 10 -5 35% 76.43 0.0
01 18:55 N 15 16.09 Partly Cloudy SCT065 10 -5 35% 8 76.43 0.0
01 18:35 N 11 16.09 Partly Cloudy SCT060 9 -5 37% 8 76.43 0.0
01 18:15 N 22 16.09 Mostly Cloudy BKN060 10 -4 37% 7 76.4 0.0
01 17:55 N 19 16.09 Mostly Cloudy BKN060 11 -4 35% 76.4 0.0
01 17:36 N 13 G 28 16.09 Overcast OVC060 11 -4 35% 76.4 0.0
01 17:15 N 9 G 30 16.09 Mostly Cloudy BKN060 11 -5 32% 76.4 0.0
01 16:55 NW 15 16.09 Mostly Cloudy BKN060 10 -4 37% 8 76.4 0.0
01 16:35 N 15 16.09 Mostly Cloudy BKN070 10 -4 37% 8 76.4 0.0
01 16:15 N 13 16.09 Mostly Cloudy SCT055 BKN065 10 -4 37% 8 76.4 0.0
01 15:55 NW 15 G 28 16.09 Mostly Cloudy BKN065 11 -4 35% 76.4 0.0
01 15:35 N 11 16.09 Overcast SCT060 OVC065 11 -4 35% 76.4 0.0
01 15:15 NW 13 16.09 Mostly Cloudy BKN060 9 -4 40% 7 76.43 0.0
01 14:56 N 17 G 31 16.09 Overcast SCT050 OVC060 10 -3 40% 8 76.43 0.0
01 14:35 N 11 16.09 Mostly Cloudy SCT050 BKN060 9 -3 43% 8 76.43 0.0
01 14:15 N 11 16.09 Mostly Cloudy SCT050 BKN060 9 -3 43% 8 76.43 0.0
01 13:55 N 15 16.09 Overcast BKN050 OVC060 9 -3 43% 7 76.43 0.0
01 13:35 N 9 16.09 Mostly Cloudy BKN050 BKN065 9 -3 43% 8 76.43 0.0
01 13:15 NW 19 16.09 Mostly Cloudy SCT049 BKN055 9 -3 43% 7 76.43 0.0
01 12:55 NW 20 G 28 16.09 Overcast BKN049 OVC060 8 -3 46% 5 76.43 0.0
01 12:36 N 11 16.09 Overcast BKN047 OVC050 8 -4 43% 6 76.45 0.0
01 12:15 N 20 G 30 16.09 Overcast SCT047 OVC050 9 -2 46% 6 76.43 0.0
01 11:55 N 15 G 26 16.09 Overcast SCT042 OVC050 8 -2 50% 6 76.43 0.0
01 11:35 N 15 G 28 16.09 Mostly Cloudy BKN040 BKN049 8 -2 50% 6 76.4 0.0
01 11:15 N 20 G 33 16.09 Partly Cloudy SCT036 SCT060 9 -1 50% 6 76.4 0.0
01 10:55 NW 26 G 33 16.09 Mostly Cloudy BKN060 8 0 57% 5 76.4 0.0
01 10:35 N 20 G 37 16.09 Mostly Cloudy BKN049 BKN060 7 1 66% 4 76.4 0.0
01 10:16 N 15 G 33 16.09 Overcast SCT049 OVC060 7 1 66% 5 76.4 0.0
01 09:55 N 24 G 31 16.09 Overcast OVC060 6 1 71% 2 76.4 0.0
01 09:35 N 19 G 35 16.09 Mostly Cloudy SCT041 BKN060 6 1 71% 3 76.38 0.0
01 09:15 N 19 G 30 16.09 Partly Cloudy SCT041 5 1 76% 2 76.38 0.0
01 08:55 NW 22 G 28 16.09 Partly Cloudy SCT040 4 0 75% -0 76.38 0.0
01 08:35 N 19 G 28 16.09 Partly Cloudy SCT040 SCT047 3 0 81% -1 76.35 0.0
01 08:15 N 24 16.09 Partly Cloudy SCT041 SCT055 3 0 81% -2 76.35 0.0
01 07:55 N 19 G 28 16.09 Fair CLR 3 0 81% -1 76.35 0.0
01 07:36 NW 22 16.09 Fair CLR 2 0 87% -3 76.35 0.0
01 07:15 NW 19 16.09 Fair CLR 2 0 87% -2 76.33 0.0
01 06:55 NW 15 16.09 Fair CLR 1 0 93% -3 76.3 0.0
01 06:35 NW 9 16.09 Fair CLR 1 0 93% -2 76.3 0.0
01 06:15 NW 13 16.09 Fair CLR 2 0 87% -1 76.3 0.0
01 05:55 N 9 16.09 Fair CLR 2 1 93% -0 76.28 0.0
01 05:35 NW 9 16.09 Fair CLR 2 1 93% -0 76.28 0.0
01 05:16 NW 9 16.09 Partly Cloudy SCT075 2 1 93% -0 76.28 0.0
01 04:55 NW 11 16.09 Partly Cloudy SCT095 3 1 87% 0 76.28 0.0
01 04:35 NW 13 16.09 Overcast OVC095 3 2 93% 0 76.28 0.0
01 04:15 NW 9 16.09 Overcast OVC095 3 2 93% 1 76.25 0.0
01 03:55 NW 7 16.09 Overcast OVC095 4 1 81% 2 76.28 0.0
01 03:35 N 13 16.09 Overcast OVC085 4 2 87% 1 76.28 0.0
01 03:15 NW 11 16.09 Overcast OVC085 4 2 87% 2 76.25 0.0
01 02:56 NW 7 16.09 Overcast OVC085 4 2 87% 2 76.28 0.0
01 02:35 Calm 16.09 Mostly Cloudy BKN085 BKN110 3 2 93% 76.28 0.0
01 02:15 W 6 16.09 Mostly Cloudy BKN110 4 2 87% 76.28 0.0
01 01:55 Calm 16.09 Overcast SCT040 SCT065 OVC110 4 2 87% 76.28 0.0
01 01:35 Calm 16.09 Overcast SCT070 SCT080 OVC110 5 3 87% 76.3 0.0
Date Time (cdt) Wind (kph) Vis. (km) Weather Sky Cond. Air Dwpt Max. Min. Relative Humidity Wind Chill (°C) Heat Index (°C) altimeter (cm) sea level (mb) 1 hr 3 hr 6 hr
6 hour
Temperature (ºC) Pressure Precipitation (cm)